createdAt,value
2022-12-15T00:05:06.367Z,8.98
2022-12-15T00:10:23.897Z,9.48
2022-12-15T00:15:39.437Z,9.75
2022-12-15T00:20:54.949Z,9.55
2022-12-15T00:26:12.140Z,9.63
2022-12-15T00:31:28.382Z,10.10
2022-12-15T00:41:43.297Z,11.02
2022-12-15T00:46:56.314Z,9.18
2022-12-15T00:52:11.803Z,10.50
2022-12-15T00:57:28.694Z,11.07
2022-12-15T01:02:44.364Z,10.98
2022-12-15T01:08:00.454Z,10.55
2022-12-15T01:13:17.838Z,9.45
2022-12-15T01:18:33.283Z,10.20
2022-12-15T01:23:32.375Z,24.90
2022-12-15T01:28:32.457Z,18.63
2022-12-15T01:33:30.931Z,19.17
2022-12-15T01:38:29.784Z,19.35
2022-12-15T01:43:30.355Z,23.55
2022-12-15T01:48:37.941Z,25.67
2022-12-15T01:53:37.786Z,27.30
2022-12-15T01:58:36.608Z,29.23
2022-12-15T02:03:36.725Z,25.27
2022-12-15T02:08:35.007Z,27.95
2022-12-15T02:13:36.477Z,25.98
2022-12-15T02:18:38.814Z,27.75
2022-12-15T02:23:58.752Z,40.35
2022-12-15T02:29:01.156Z,27.48
2022-12-15T02:34:05.094Z,25.63
2022-12-15T02:39:03.392Z,34.60
2022-12-15T02:44:02.302Z,32.97
2022-12-15T02:49:08.489Z,27.83
2022-12-15T02:54:14.540Z,32.05
2022-12-15T02:59:16.116Z,30.52
2022-12-15T03:04:16.365Z,26.60
2022-12-15T03:09:14.542Z,28.05
2022-12-15T03:14:12.861Z,31.00
2022-12-15T03:19:11.099Z,25.40
2022-12-15T03:24:10.814Z,26.02
2022-12-15T03:29:09.203Z,26.80
2022-12-15T03:34:07.554Z,25.42
2022-12-15T03:39:05.952Z,26.00
2022-12-15T03:44:05.720Z,47.13
2022-12-15T03:49:04.125Z,38.08
2022-12-15T03:54:02.344Z,30.40
2022-12-15T03:59:00.512Z,33.70
2022-12-15T04:04:01.453Z,33.75
2022-12-15T04:08:59.872Z,40.60
2022-12-15T04:13:58.062Z,40.55
2022-12-15T04:19:10.073Z,33.58
2022-12-15T04:24:27.447Z,27.65
2022-12-15T04:29:42.741Z,40.72
2022-12-15T04:34:58.315Z,35.33
2022-12-15T04:40:15.978Z,35.80
2022-12-15T04:45:32.500Z,32.55
2022-12-15T04:50:47.857Z,31.10
2022-12-15T04:56:07.120Z,25.88
2022-12-15T05:01:22.701Z,26.55
2022-12-15T05:11:55.578Z,26.33
2022-12-15T05:17:11.001Z,27.70
2022-12-15T05:22:26.586Z,26.05
2022-12-15T05:27:43.852Z,23.58
2022-12-15T05:32:42.098Z,24.73
2022-12-15T05:37:40.271Z,25.50
2022-12-15T05:42:39.808Z,24.15
2022-12-15T05:47:37.943Z,25.90
2022-12-15T05:52:36.167Z,23.35
2022-12-15T05:57:34.343Z,23.05
2022-12-15T06:02:34.025Z,19.45
2022-12-15T06:07:32.214Z,30.98
2022-12-15T06:12:30.439Z,30.15
2022-12-15T06:17:28.645Z,20.67
2022-12-15T06:22:29.085Z,20.73
2022-12-15T06:27:27.259Z,23.92
2022-12-15T06:32:25.420Z,21.95
2022-12-15T06:37:23.592Z,20.42
2022-12-15T06:42:23.115Z,21.20
2022-12-15T06:47:21.308Z,20.55
2022-12-15T06:52:19.459Z,21.33
2022-12-15T06:57:17.598Z,23.13
2022-12-15T07:02:20.157Z,20.33
2022-12-15T07:07:22.007Z,18.58
2022-12-15T07:12:20.187Z,21.70
2022-12-15T07:17:19.840Z,24.92
2022-12-15T07:22:18.062Z,21.60
2022-12-15T07:27:16.243Z,21.00
2022-12-15T07:32:15.750Z,21.65
2022-12-15T07:37:16.228Z,21.55
2022-12-15T07:42:14.667Z,21.38
2022-12-15T07:47:12.847Z,22.35
2022-12-15T07:52:11.006Z,22.20
2022-12-15T07:57:10.551Z,22.42
2022-12-15T08:02:10.398Z,24.88
2022-12-15T08:07:10.149Z,24.70
2022-12-15T08:12:08.546Z,23.10
2022-12-15T08:17:08.101Z,23.77
2022-12-15T08:22:06.270Z,25.58
2022-12-15T08:27:04.440Z,41.70
2022-12-15T08:32:02.880Z,28.85
2022-12-15T08:37:02.492Z,23.38
2022-12-15T08:42:00.683Z,26.88
2022-12-15T08:46:59.076Z,23.65
2022-12-15T08:51:57.244Z,23.02
2022-12-15T08:56:56.849Z,24.38
2022-12-15T09:01:55.116Z,21.63
2022-12-15T09:06:53.366Z,19.92
2022-12-15T09:11:51.717Z,21.33
2022-12-15T09:16:51.391Z,20.70
2022-12-15T09:21:49.615Z,27.83
2022-12-15T09:26:47.794Z,28.58
2022-12-15T09:31:46.704Z,23.23
2022-12-15T09:36:46.308Z,22.35
2022-12-15T09:41:49.765Z,21.17
2022-12-15T09:46:52.357Z,21.65
2022-12-15T09:51:54.818Z,24.23
2022-12-15T09:56:56.028Z,22.73
2022-12-15T10:02:01.692Z,21.05
2022-12-15T10:07:04.950Z,21.33
2022-12-15T10:12:05.692Z,25.33
2022-12-15T10:17:07.922Z,22.33
2022-12-15T10:22:11.714Z,24.48
2022-12-15T10:27:21.500Z,24.48
2022-12-15T10:32:20.861Z,17.02
2022-12-15T10:37:21.289Z,21.92
2022-12-15T10:42:21.861Z,18.55
2022-12-15T10:47:21.859Z,20.23
2022-12-15T10:52:23.390Z,33.38
2022-12-15T10:57:23.010Z,20.02
2022-12-15T11:02:34.380Z,19.00
2022-12-15T11:07:38.659Z,21.42
2022-12-15T11:12:58.282Z,24.17
2022-12-15T11:17:59.235Z,36.17
2022-12-15T11:22:59.806Z,17.90
2022-12-15T11:27:58.912Z,22.65
2022-12-15T11:33:00.136Z,16.75
2022-12-15T11:38:02.964Z,20.70
2022-12-15T11:43:06.567Z,20.08
2022-12-15T11:48:10.114Z,23.80
2022-12-15T11:53:15.948Z,15.88
2022-12-15T11:58:38.041Z,16.88
2022-12-15T12:03:41.714Z,18.52
2022-12-15T12:08:56.577Z,21.20
2022-12-15T12:14:02.584Z,15.63
2022-12-15T12:19:03.829Z,18.15
2022-12-15T12:24:05.098Z,15.63
2022-12-15T12:29:06.169Z,14.15
2022-12-15T12:34:07.201Z,14.90
2022-12-15T12:39:06.985Z,30.58
2022-12-15T12:44:08.718Z,16.90
2022-12-15T12:49:09.025Z,18.52
2022-12-15T12:54:22.027Z,15.13
2022-12-15T12:59:38.997Z,17.30
2022-12-15T13:04:41.076Z,21.17
2022-12-15T13:09:40.606Z,16.73
2022-12-15T13:20:23.016Z,24.20
2022-12-15T13:25:38.765Z,23.08
2022-12-15T13:35:36.719Z,24.10
2022-12-15T13:40:50.405Z,18.70
2022-12-15T13:45:51.187Z,29.02
2022-12-15T13:50:55.957Z,20.70
2022-12-15T13:56:01.704Z,23.67
2022-12-15T14:00:59.853Z,17.70
2022-12-15T14:06:00.217Z,20.48
2022-12-15T14:11:07.048Z,18.17
2022-12-15T14:16:19.119Z,36.38
2022-12-15T14:21:21.688Z,38.13
2022-12-15T14:26:19.860Z,60.45
2022-12-15T14:31:19.333Z,46.33
2022-12-15T14:36:18.956Z,22.30
2022-12-15T14:41:21.344Z,41.30
2022-12-15T14:46:21.032Z,34.58
2022-12-15T14:51:19.249Z,37.03
2022-12-15T14:56:29.989Z,25.75
2022-12-15T15:01:29.973Z,20.13
2022-12-15T15:03:07.368Z,17.42
2022-12-15T15:06:32.733Z,27.58
2022-12-15T15:11:34.073Z,27.17
2022-12-15T15:16:32.441Z,43.95
2022-12-15T15:21:31.340Z,43.10
2022-12-15T15:26:29.684Z,65.05
2022-12-15T15:31:35.297Z,80.72
2022-12-15T15:36:39.179Z,95.32
2022-12-15T15:41:37.338Z,28.70
2022-12-15T15:46:38.969Z,20.20
2022-12-15T15:51:37.856Z,25.83
2022-12-15T15:56:36.012Z,29.45
2022-12-15T16:01:34.311Z,29.20
2022-12-15T16:06:33.966Z,32.53
2022-12-15T16:11:32.449Z,39.15
2022-12-15T16:16:32.389Z,53.70
2022-12-15T16:21:31.038Z,26.00
2022-12-15T16:26:31.302Z,20.65
2022-12-15T16:31:32.928Z,36.80
2022-12-15T16:36:35.839Z,35.15
2022-12-15T16:41:35.372Z,27.10
2022-12-15T16:46:33.584Z,31.23
2022-12-15T16:51:35.290Z,31.58
2022-12-15T16:56:33.547Z,71.03
2022-12-15T17:01:36.836Z,78.05
2022-12-15T17:06:38.715Z,63.33
2022-12-15T17:11:37.130Z,43.65
2022-12-15T17:16:37.013Z,33.63
2022-12-15T17:21:36.091Z,33.10
2022-12-15T17:26:36.443Z,43.53
2022-12-15T17:31:36.386Z,34.45
2022-12-15T17:36:34.683Z,30.83
2022-12-15T17:41:58.741Z,30.00
2022-12-15T17:46:52.977Z,25.73
2022-12-15T17:51:51.225Z,22.40
2022-12-15T17:56:50.377Z,42.72
2022-12-15T18:01:48.966Z,70.40
2022-12-15T18:06:48.659Z,68.53
2022-12-15T18:11:47.602Z,39.97
2022-12-15T18:16:46.007Z,23.58
2022-12-15T18:21:44.287Z,21.38
2022-12-15T18:26:43.817Z,23.05
2022-12-15T18:31:42.805Z,33.83
2022-12-15T18:36:41.088Z,34.95
2022-12-15T18:41:39.259Z,52.97
2022-12-15T18:46:42.006Z,62.20
2022-12-15T18:51:42.908Z,29.63
2022-12-15T18:56:41.081Z,35.95
2022-12-15T19:01:40.865Z,28.25
2022-12-15T19:06:40.531Z,39.95
2022-12-15T19:11:38.733Z,39.10
2022-12-15T19:16:50.827Z,45.75
2022-12-15T19:22:07.920Z,85.53
2022-12-15T19:27:10.948Z,49.30
2022-12-15T19:32:09.518Z,47.13
2022-12-15T19:37:13.700Z,42.60
2022-12-15T19:42:18.235Z,36.17
2022-12-15T19:47:16.691Z,41.55
2022-12-15T19:52:16.856Z,57.53
2022-12-15T19:57:15.855Z,53.85
2022-12-15T20:02:16.359Z,68.00
2022-12-15T20:07:18.160Z,69.93
2022-12-15T20:12:17.892Z,41.88
2022-12-15T20:17:16.108Z,30.83
2022-12-15T20:22:14.964Z,40.85
2022-12-15T20:27:15.380Z,28.13
2022-12-15T20:32:15.324Z,32.33
2022-12-15T20:37:17.935Z,32.35
2022-12-15T20:42:18.571Z,34.33
2022-12-15T20:47:20.422Z,36.38
2022-12-15T20:52:20.622Z,17.77
2022-12-15T20:57:20.267Z,25.25
2022-12-15T21:02:19.480Z,37.17
2022-12-15T21:07:17.808Z,22.23
2022-12-15T21:12:18.395Z,18.83
2022-12-15T21:17:18.188Z,17.42
2022-12-15T21:22:18.803Z,22.25
2022-12-15T21:27:16.998Z,18.83
2022-12-15T21:32:15.197Z,17.58
2022-12-15T21:37:21.516Z,22.58
2022-12-15T21:42:21.122Z,24.15
2022-12-15T21:47:24.530Z,33.50
2022-12-15T21:52:25.576Z,22.02
2022-12-15T21:57:23.764Z,20.75
2022-12-15T22:02:24.819Z,21.75
2022-12-15T22:07:24.494Z,19.23
2022-12-15T22:12:23.558Z,21.17
2022-12-15T22:17:22.658Z,18.85
2022-12-15T22:22:20.822Z,27.45
2022-12-15T22:27:22.413Z,28.58
2022-12-15T22:32:20.933Z,18.58
2022-12-15T22:37:19.081Z,21.50
2022-12-15T22:42:17.887Z,31.17
2022-12-15T22:47:17.422Z,20.85
2022-12-15T22:52:16.862Z,17.40
2022-12-15T22:57:20.052Z,16.58
2022-12-15T23:02:19.747Z,18.80
2022-12-15T23:07:18.040Z,20.83
2022-12-15T23:12:16.231Z,19.92
2022-12-15T23:17:14.806Z,17.15
2022-12-15T23:22:14.719Z,15.95
2022-12-15T23:27:13.155Z,15.75
2022-12-15T23:32:11.306Z,14.10
2022-12-15T23:37:09.493Z,16.67
2022-12-15T23:42:10.982Z,12.82
2022-12-15T23:47:09.214Z,19.50
2022-12-15T23:52:07.680Z,12.00
2022-12-15T23:57:06.450Z,17.33
